Terminal Aerodrome Forecast
Issued by NWS

Home | Current Version | Previous Version | Text Only | Print | Product List | Glossary On
Versions: 1 2 3 4 5 6 7 8 9 10 11 12 13 14 15 16 17 18 19 20 21 22 23
301
FTUS43 KGRB 161726
TAFMTW
TAF
KMTW 161726Z 1618/1718 VRB03KT P6SM OVC070
     FM162100 11005KT P6SM -SN SCT015 OVC040
      TEMPO 1621/1623 3SM -FZRAPL BR BKN015
     FM162300 11005KT 3SM -FZRA BR OVC008
     FM170200 08008G15KT 1 1/2SM -RA BR OVC005
     FM170800 04008G15KT 1 1/2SM -RA BR OVC003
     FM171500 36008G15KT 1 1/2SM -RA BR OVC003=

USA.gov is the U.S. government's official web portal to all federal, state and local government web resources and services.